createdAt,value
2022-07-25T00:00:09.828Z,26.50
2022-07-25T00:02:36.332Z,26.50
2022-07-25T00:05:03.372Z,26.50
2022-07-25T00:07:29.919Z,26.50
2022-07-25T00:09:56.452Z,26.40
2022-07-25T00:12:22.974Z,26.40
2022-07-25T00:14:49.534Z,26.50
2022-07-25T00:17:16.066Z,26.40
2022-07-25T00:19:42.604Z,26.40
2022-07-25T00:22:09.120Z,26.40
2022-07-25T00:24:35.656Z,26.40
2022-07-25T00:27:02.177Z,26.40
2022-07-25T00:29:28.734Z,26.40
2022-07-25T00:31:55.251Z,26.40
2022-07-25T00:34:21.805Z,26.40
2022-07-25T00:36:48.324Z,26.40
2022-07-25T00:39:14.923Z,26.40
2022-07-25T00:41:41.461Z,26.40
2022-07-25T00:44:08.431Z,26.40
2022-07-25T00:46:35.415Z,26.40
2022-07-25T00:49:02.080Z,26.40
2022-07-25T00:51:28.685Z,26.40
2022-07-25T00:53:55.212Z,26.40
2022-07-25T00:56:27.161Z,26.40
2022-07-25T00:58:53.683Z,26.30
2022-07-25T01:01:20.335Z,26.30
2022-07-25T01:03:46.876Z,26.40
2022-07-25T01:06:15.154Z,26.30
2022-07-25T01:08:41.692Z,26.30
2022-07-25T01:11:09.324Z,26.30
2022-07-25T01:13:39.356Z,26.30
2022-07-25T01:16:05.961Z,26.30
2022-07-25T01:18:32.556Z,26.30
2022-07-25T01:20:59.114Z,26.30
2022-07-25T01:23:25.651Z,26.30
2022-07-25T01:25:52.212Z,26.30
2022-07-25T01:28:18.726Z,26.30
2022-07-25T01:30:45.297Z,26.30
2022-07-25T01:33:11.859Z,26.30
2022-07-25T01:35:43.250Z,26.30
2022-07-25T01:38:10.065Z,26.30
2022-07-25T01:40:36.602Z,26.30
2022-07-25T01:43:03.119Z,26.30
2022-07-25T01:45:33.186Z,26.30
2022-07-25T01:47:59.696Z,26.30
2022-07-25T01:50:26.247Z,26.30
2022-07-25T01:52:52.769Z,26.30
2022-07-25T01:55:19.298Z,26.30
2022-07-25T01:57:49.902Z,26.30
2022-07-25T02:00:16.764Z,26.30
2022-07-25T02:02:43.319Z,26.30
2022-07-25T02:05:09.918Z,26.30
2022-07-25T02:07:36.472Z,26.30
2022-07-25T02:10:02.997Z,26.30
2022-07-25T02:12:29.551Z,26.30
2022-07-25T02:14:56.081Z,26.30
2022-07-25T02:17:22.710Z,26.30
2022-07-25T02:19:49.271Z,26.30
2022-07-25T02:22:15.816Z,26.30
2022-07-25T02:24:43.465Z,26.30
2022-07-25T02:27:09.994Z,26.30
2022-07-25T02:29:36.513Z,26.30
2022-07-25T02:32:03.036Z,26.30
2022-07-25T02:34:33.234Z,26.30
2022-07-25T02:36:59.774Z,26.30
2022-07-25T02:39:26.282Z,26.30
2022-07-25T02:41:52.802Z,26.30
2022-07-25T02:44:19.333Z,26.30
2022-07-25T02:46:45.854Z,26.20
2022-07-25T02:49:13.508Z,26.20
2022-07-25T02:51:40.081Z,26.30
2022-07-25T02:54:06.611Z,26.30
2022-07-25T02:56:33.166Z,26.30
2022-07-25T02:58:59.702Z,26.20
2022-07-25T03:01:26.324Z,26.20
2022-07-25T03:03:53.031Z,26.20
2022-07-25T03:06:19.598Z,26.20
2022-07-25T03:08:46.131Z,26.30
2022-07-25T03:11:12.681Z,26.20
2022-07-25T03:13:39.205Z,26.20
2022-07-25T03:16:06.256Z,26.20
2022-07-25T03:18:32.774Z,26.20
2022-07-25T03:20:59.327Z,26.20
2022-07-25T03:23:25.844Z,26.20
2022-07-25T03:25:57.278Z,26.30
2022-07-25T03:28:23.809Z,26.30
2022-07-25T03:30:50.347Z,26.20
2022-07-25T03:33:16.868Z,26.20
2022-07-25T03:35:44.208Z,26.10
2022-07-25T03:38:10.724Z,26.20
2022-07-25T03:40:37.232Z,26.20
2022-07-25T03:43:03.766Z,26.10
2022-07-25T03:45:30.333Z,26.20
2022-07-25T03:47:56.938Z,26.10
2022-07-25T03:50:23.471Z,26.10
2022-07-25T03:52:49.995Z,26.10
2022-07-25T03:55:16.512Z,26.10
2022-07-25T03:57:43.038Z,26.10
2022-07-25T04:00:09.554Z,26.00
2022-07-25T04:02:36.137Z,26.10
2022-07-25T04:05:02.777Z,26.10
2022-07-25T04:07:29.319Z,26.10
2022-07-25T04:09:55.849Z,26.10
2022-07-25T04:12:22.403Z,26.10
2022-07-25T04:14:48.919Z,26.10
2022-07-25T04:17:15.484Z,26.10
2022-07-25T04:19:42.063Z,26.10
2022-07-25T04:22:08.583Z,26.10
2022-07-25T04:24:35.092Z,26.10
2022-07-25T04:27:01.637Z,26.10
2022-07-25T04:29:28.157Z,26.10
2022-07-25T04:31:54.757Z,26.10
2022-07-25T04:34:21.317Z,26.20
2022-07-25T04:36:47.859Z,26.20
2022-07-25T04:39:14.392Z,26.10
2022-07-25T04:41:40.921Z,26.20
2022-07-25T04:44:07.686Z,26.20
2022-07-25T04:46:34.536Z,26.20
2022-07-25T04:49:01.128Z,26.20
2022-07-25T04:51:27.701Z,26.10
2022-07-25T04:53:54.234Z,26.20
2022-07-25T04:56:20.760Z,26.10
2022-07-25T04:58:47.306Z,26.10
2022-07-25T05:01:13.876Z,26.20
2022-07-25T05:03:40.455Z,26.20
2022-07-25T05:06:09.293Z,26.20
2022-07-25T05:08:35.851Z,26.20
2022-07-25T05:11:02.363Z,26.20
2022-07-25T05:13:28.877Z,26.20
2022-07-25T05:15:55.423Z,26.20
2022-07-25T05:18:21.976Z,26.10
2022-07-25T05:20:48.509Z,26.10
2022-07-25T05:23:15.035Z,26.10
2022-07-25T05:25:41.564Z,26.10
2022-07-25T05:28:08.106Z,26.10
2022-07-25T05:30:39.592Z,26.10
2022-07-25T05:33:06.218Z,26.10
2022-07-25T05:35:32.728Z,26.10
2022-07-25T05:37:59.257Z,26.10
2022-07-25T05:40:25.781Z,26.10
2022-07-25T05:42:52.307Z,26.10
2022-07-25T05:45:21.337Z,26.10
2022-07-25T05:47:47.876Z,26.10
2022-07-25T05:50:14.404Z,26.10
2022-07-25T05:52:45.395Z,26.10
2022-07-25T05:55:11.911Z,26.10
2022-07-25T05:57:38.459Z,26.10
2022-07-25T06:00:04.990Z,26.10
2022-07-25T06:02:31.639Z,26.10
2022-07-25T06:04:58.239Z,26.10
2022-07-25T06:07:24.799Z,26.10
2022-07-25T06:09:51.321Z,26.10
2022-07-25T06:12:17.877Z,26.10
2022-07-25T06:14:44.416Z,26.10
2022-07-25T06:17:11.446Z,26.10
2022-07-25T06:19:37.970Z,26.10
2022-07-25T06:22:04.504Z,26.10
2022-07-25T06:24:31.022Z,26.10
2022-07-25T06:26:57.550Z,26.10
2022-07-25T06:29:24.201Z,26.10
2022-07-25T06:31:50.747Z,26.10
2022-07-25T06:34:17.293Z,26.10
2022-07-25T06:36:43.834Z,26.10
2022-07-25T06:39:10.352Z,26.10
2022-07-25T06:41:36.864Z,26.10
2022-07-25T06:44:03.564Z,26.10
2022-07-25T06:46:30.313Z,26.10
2022-07-25T06:48:56.909Z,26.10
2022-07-25T06:51:23.448Z,26.10
2022-07-25T06:53:49.968Z,26.10
2022-07-25T06:56:17.856Z,26.10
2022-07-25T06:58:44.499Z,26.10
2022-07-25T07:01:11.118Z,26.10
2022-07-25T07:03:37.779Z,26.10
2022-07-25T07:06:04.326Z,26.10
2022-07-25T07:08:30.836Z,26.10
2022-07-25T07:10:57.360Z,26.10
2022-07-25T07:13:24.598Z,26.10
2022-07-25T07:15:51.352Z,26.10
2022-07-25T07:18:18.009Z,26.10
2022-07-25T07:20:44.535Z,26.10
2022-07-25T07:23:11.081Z,26.10
2022-07-25T07:25:43.405Z,26.10
2022-07-25T07:28:10.024Z,26.10
2022-07-25T07:31:05.631Z,26.10
2022-07-25T07:33:23.069Z,26.10
2022-07-25T07:35:51.435Z,26.20
2022-07-25T07:38:17.980Z,26.10
2022-07-25T07:40:44.491Z,26.20
2022-07-25T07:43:11.008Z,26.10
2022-07-25T07:45:37.532Z,26.20
2022-07-25T07:48:04.059Z,26.10
2022-07-25T07:50:30.576Z,26.10
2022-07-25T07:52:57.138Z,26.10
2022-07-25T07:55:23.681Z,26.10
2022-07-25T07:57:50.441Z,26.10
2022-07-25T08:00:16.995Z,26.10
2022-07-25T08:02:43.572Z,26.20
2022-07-25T08:05:10.118Z,26.20
2022-07-25T08:07:36.641Z,26.10
2022-07-25T08:10:03.162Z,26.20
2022-07-25T08:12:29.692Z,26.20
2022-07-25T08:14:57.518Z,26.10
2022-07-25T08:17:28.464Z,26.10
2022-07-25T08:19:55.388Z,26.10
2022-07-25T08:22:21.920Z,26.10
2022-07-25T08:24:48.450Z,26.10
2022-07-25T08:27:14.964Z,26.10
2022-07-25T08:29:41.509Z,26.10
2022-07-25T08:32:08.039Z,26.10
2022-07-25T08:34:34.587Z,26.10
2022-07-25T08:37:01.099Z,26.10
2022-07-25T08:39:27.634Z,26.20
2022-07-25T08:41:54.168Z,26.10
2022-07-25T08:44:20.726Z,26.20
2022-07-25T08:46:47.331Z,26.10
2022-07-25T08:49:13.960Z,26.20
2022-07-25T08:51:40.518Z,26.10
2022-07-25T08:54:07.466Z,26.20
2022-07-25T08:56:34.448Z,26.20
2022-07-25T08:59:01.010Z,26.20
2022-07-25T09:01:31.523Z,26.20
2022-07-25T09:04:00.964Z,26.20
2022-07-25T09:06:27.472Z,26.20
2022-07-25T09:08:54.002Z,26.20
2022-07-25T09:11:20.550Z,26.20
2022-07-25T09:13:53.987Z,26.20
2022-07-25T09:16:20.554Z,26.20
2022-07-25T09:18:48.227Z,26.30
2022-07-25T09:21:14.763Z,26.20
2022-07-25T09:23:41.293Z,26.20
2022-07-25T09:26:07.826Z,26.20
2022-07-25T09:28:34.329Z,26.20
2022-07-25T09:31:00.960Z,26.20
2022-07-25T09:33:27.929Z,26.30
2022-07-25T09:35:54.456Z,26.30
2022-07-25T09:38:21.547Z,26.30
2022-07-25T09:40:51.579Z,26.20
2022-07-25T09:43:18.088Z,26.30
2022-07-25T09:45:44.635Z,26.30
2022-07-25T09:48:11.158Z,26.30
2022-07-25T09:50:37.716Z,26.30
2022-07-25T09:53:04.243Z,26.30
2022-07-25T09:55:30.801Z,26.30
2022-07-25T09:57:57.311Z,26.30
2022-07-25T10:00:23.849Z,26.30
2022-07-25T10:02:50.466Z,26.30
2022-07-25T10:05:17.068Z,26.30
2022-07-25T10:07:43.587Z,26.30
2022-07-25T10:10:10.126Z,26.30
2022-07-25T10:12:36.635Z,26.40
2022-07-25T10:15:03.166Z,26.40
2022-07-25T10:17:29.690Z,26.40
2022-07-25T10:19:58.841Z,26.40
2022-07-25T10:22:46.373Z,26.40
2022-07-25T10:25:12.175Z,26.40
2022-07-25T10:27:38.702Z,26.40
2022-07-25T10:30:05.243Z,26.50
2022-07-25T10:32:31.758Z,26.50
2022-07-25T10:34:58.293Z,26.40
2022-07-25T10:37:24.838Z,26.40
2022-07-25T10:39:51.375Z,26.40
2022-07-25T10:42:17.909Z,26.40
2022-07-25T10:44:44.444Z,26.40
2022-07-25T10:47:10.982Z,26.40
2022-07-25T10:49:37.573Z,26.40
2022-07-25T10:52:04.162Z,26.40
2022-07-25T10:54:30.671Z,26.40
2022-07-25T10:56:57.204Z,26.40
2022-07-25T10:59:23.716Z,26.50
2022-07-25T11:01:50.348Z,26.50
2022-07-25T11:04:16.927Z,26.50
2022-07-25T11:06:43.470Z,26.50
2022-07-25T11:09:12.869Z,26.50
2022-07-25T11:11:41.506Z,26.50
2022-07-25T11:14:08.012Z,26.50
2022-07-25T11:16:34.601Z,26.60
2022-07-25T11:19:01.174Z,26.50
2022-07-25T11:21:27.712Z,26.50
2022-07-25T11:23:54.254Z,26.60
2022-07-25T11:26:20.772Z,26.60
2022-07-25T11:28:47.297Z,26.60
2022-07-25T11:31:15.717Z,26.60
2022-07-25T11:33:42.282Z,26.50
2022-07-25T11:36:09.030Z,26.50
2022-07-25T11:38:35.569Z,26.50
2022-07-25T11:41:02.111Z,26.50
2022-07-25T11:43:28.649Z,26.60
2022-07-25T11:45:57.709Z,26.50
2022-07-25T11:48:24.239Z,26.60
2022-07-25T11:50:50.768Z,26.60
2022-07-25T11:53:17.290Z,26.50
2022-07-25T11:55:43.835Z,26.60
2022-07-25T11:58:10.376Z,26.60
2022-07-25T12:00:36.942Z,26.60
2022-07-25T12:03:03.604Z,26.60
2022-07-25T12:05:30.281Z,26.60
2022-07-25T12:07:56.816Z,26.60
2022-07-25T12:10:23.372Z,26.60
2022-07-25T12:12:49.906Z,26.60
2022-07-25T12:15:16.430Z,26.60
2022-07-25T12:17:42.977Z,26.60
2022-07-25T12:20:11.055Z,26.60
2022-07-25T12:22:37.690Z,26.70
2022-07-25T12:25:04.205Z,26.70
2022-07-25T12:27:30.740Z,26.70
2022-07-25T12:29:57.277Z,26.70
2022-07-25T12:32:23.817Z,26.70
2022-07-25T12:34:50.331Z,26.70
2022-07-25T12:37:17.052Z,26.70
2022-07-25T12:39:43.603Z,26.70
2022-07-25T12:42:10.121Z,26.70
2022-07-25T12:44:36.644Z,26.70
2022-07-25T12:47:03.173Z,26.70
2022-07-25T12:49:29.702Z,26.70
2022-07-25T12:51:58.207Z,26.70
2022-07-25T12:54:24.880Z,26.70
2022-07-25T12:56:51.802Z,26.80
2022-07-25T12:59:18.343Z,26.80
2022-07-25T13:01:44.886Z,26.80
2022-07-25T13:04:11.465Z,26.80
2022-07-25T13:06:38.927Z,26.80
2022-07-25T13:09:05.779Z,26.80
2022-07-25T13:11:32.514Z,26.80
2022-07-25T13:13:59.049Z,26.80
2022-07-25T13:16:25.654Z,26.80
2022-07-25T13:18:52.229Z,26.70
2022-07-25T13:21:18.757Z,26.80
2022-07-25T13:23:45.301Z,26.80
2022-07-25T13:26:11.823Z,26.80
2022-07-25T13:28:38.373Z,26.80
2022-07-25T13:31:04.976Z,26.80
2022-07-25T13:33:31.515Z,26.80
2022-07-25T13:35:58.032Z,26.80
2022-07-25T13:38:24.543Z,26.80
2022-07-25T13:40:53.410Z,26.80
2022-07-25T13:43:23.482Z,26.80
2022-07-25T13:45:50.042Z,26.80
2022-07-25T13:48:29.523Z,26.80
2022-07-25T13:50:56.995Z,26.80
2022-07-25T13:53:27.967Z,26.80
2022-07-25T13:55:57.743Z,26.80
2022-07-25T13:58:24.271Z,26.80
2022-07-25T14:00:50.821Z,26.80
2022-07-25T14:03:17.402Z,26.80
2022-07-25T14:05:43.909Z,26.90
2022-07-25T14:08:10.442Z,26.80
2022-07-25T14:10:36.977Z,26.80
2022-07-25T14:13:03.512Z,26.90
2022-07-25T14:15:30.035Z,26.90
2022-07-25T14:17:56.558Z,26.90
2022-07-25T14:20:23.074Z,26.80
2022-07-25T14:22:49.629Z,26.80
2022-07-25T14:25:16.146Z,26.90
2022-07-25T14:27:42.712Z,26.80
2022-07-25T14:30:09.223Z,26.90
2022-07-25T14:32:35.752Z,26.90
2022-07-25T14:35:02.288Z,26.90
2022-07-25T14:37:28.836Z,26.90
2022-07-25T14:39:55.443Z,26.80
2022-07-25T14:42:21.957Z,26.90
2022-07-25T14:44:51.865Z,26.80
2022-07-25T14:47:18.457Z,26.90
2022-07-25T14:49:45.019Z,26.90
2022-07-25T14:52:11.597Z,26.90
2022-07-25T14:54:38.128Z,26.90
2022-07-25T14:57:04.653Z,26.90
2022-07-25T14:59:33.849Z,26.90
2022-07-25T15:02:00.380Z,26.90
2022-07-25T15:04:26.942Z,26.90
2022-07-25T15:06:53.501Z,26.90
2022-07-25T15:09:20.057Z,26.90
2022-07-25T15:11:46.600Z,26.90
2022-07-25T15:14:13.153Z,26.90
2022-07-25T15:16:39.746Z,26.90
2022-07-25T15:19:25.867Z,27.00
2022-07-25T15:21:52.749Z,27.00
2022-07-25T15:24:19.272Z,26.90
2022-07-25T15:26:45.778Z,26.90
2022-07-25T15:29:12.437Z,26.90
2022-07-25T15:31:39.065Z,26.90
2022-07-25T15:34:05.642Z,26.90
2022-07-25T15:36:32.157Z,26.90
2022-07-25T15:38:58.682Z,26.90
2022-07-25T15:41:25.207Z,27.00
2022-07-25T15:43:51.726Z,27.00
2022-07-25T15:46:18.301Z,26.80
2022-07-25T15:48:44.958Z,27.00
2022-07-25T15:51:11.513Z,26.90
2022-07-25T15:53:38.019Z,26.90
2022-07-25T15:56:04.544Z,26.90
2022-07-25T15:58:31.053Z,26.90
2022-07-25T16:00:57.651Z,26.90
2022-07-25T16:03:24.295Z,26.90
2022-07-25T16:05:50.875Z,26.90
2022-07-25T16:08:17.392Z,26.90
2022-07-25T16:10:43.924Z,26.90
2022-07-25T16:13:10.447Z,26.90
2022-07-25T16:15:36.987Z,26.80
2022-07-25T16:18:03.553Z,26.90
2022-07-25T16:20:30.119Z,26.90
2022-07-25T16:22:56.638Z,26.90
2022-07-25T16:25:23.173Z,26.90
2022-07-25T16:27:49.679Z,26.90
2022-07-25T16:30:17.411Z,26.80
2022-07-25T16:32:43.929Z,26.90
2022-07-25T16:35:10.439Z,26.90
2022-07-25T16:37:36.953Z,26.90
2022-07-25T16:40:03.501Z,26.80
2022-07-25T16:42:30.045Z,26.90
2022-07-25T16:44:56.578Z,26.90
2022-07-25T16:47:23.117Z,26.90
2022-07-25T16:49:49.645Z,26.90
2022-07-25T16:52:16.168Z,26.90
2022-07-25T16:54:42.694Z,26.90
2022-07-25T16:57:09.214Z,26.90
2022-07-25T16:59:35.715Z,26.90
2022-07-25T17:02:02.317Z,26.90
2022-07-25T17:04:28.888Z,26.90
2022-07-25T17:06:55.489Z,26.90
2022-07-25T17:09:28.098Z,26.90
2022-07-25T17:11:54.627Z,26.80
2022-07-25T17:14:23.047Z,26.80
2022-07-25T17:16:53.058Z,26.80
2022-07-25T17:19:19.595Z,26.80
2022-07-25T17:21:46.128Z,26.80
2022-07-25T17:24:12.661Z,26.80
2022-07-25T17:26:39.967Z,26.80
2022-07-25T17:29:06.774Z,26.80
2022-07-25T17:31:33.560Z,26.80
2022-07-25T17:34:00.180Z,26.80
2022-07-25T17:36:26.715Z,26.80
2022-07-25T17:38:53.251Z,26.80
2022-07-25T17:41:19.796Z,26.80
2022-07-25T17:43:51.993Z,26.80
2022-07-25T17:46:18.602Z,26.80
2022-07-25T17:48:45.205Z,26.80
2022-07-25T17:51:11.790Z,26.80
2022-07-25T17:53:38.328Z,26.80
2022-07-25T17:56:04.885Z,26.80
2022-07-25T17:58:31.415Z,26.80
2022-07-25T18:01:01.142Z,26.80
2022-07-25T18:03:28.313Z,26.80
2022-07-25T18:05:55.350Z,26.80
2022-07-25T18:08:21.904Z,26.80
2022-07-25T18:10:48.440Z,26.80
2022-07-25T18:13:14.969Z,26.80
2022-07-25T18:15:41.557Z,26.80
2022-07-25T18:18:08.091Z,26.80
2022-07-25T18:20:36.311Z,26.80
2022-07-25T18:23:02.841Z,26.80
2022-07-25T18:25:29.389Z,26.80
2022-07-25T18:27:55.914Z,26.80
2022-07-25T18:30:25.971Z,26.80
2022-07-25T18:32:55.584Z,26.80
2022-07-25T18:35:22.109Z,26.80
2022-07-25T18:37:52.025Z,26.80
2022-07-25T18:40:18.541Z,26.80
2022-07-25T18:42:45.061Z,26.70
2022-07-25T18:45:11.581Z,26.70
2022-07-25T18:47:38.106Z,26.70
2022-07-25T18:50:04.638Z,26.70
2022-07-25T18:52:31.155Z,26.70
2022-07-25T18:54:57.682Z,26.70
2022-07-25T18:57:24.209Z,26.70
2022-07-25T18:59:50.725Z,26.70
2022-07-25T19:02:17.242Z,26.70
2022-07-25T19:04:43.773Z,26.60
2022-07-25T19:07:16.047Z,26.70
2022-07-25T19:09:42.565Z,26.70
2022-07-25T19:12:09.098Z,26.70
2022-07-25T19:14:35.639Z,26.70
2022-07-25T19:17:02.168Z,26.60
2022-07-25T19:19:28.688Z,26.70
2022-07-25T19:21:55.234Z,26.60
2022-07-25T19:24:21.777Z,26.60
2022-07-25T19:26:48.759Z,26.60
2022-07-25T19:29:15.418Z,26.50
2022-07-25T19:31:41.958Z,26.60
2022-07-25T19:34:08.768Z,26.60
2022-07-25T19:36:35.487Z,26.60
2022-07-25T19:39:01.997Z,26.60
2022-07-25T19:41:28.727Z,26.50
2022-07-25T19:43:55.258Z,26.50
2022-07-25T19:46:21.866Z,26.60
2022-07-25T19:48:48.447Z,26.50
2022-07-25T19:51:15.003Z,26.50
2022-07-25T19:53:41.508Z,26.50
2022-07-25T19:56:08.029Z,26.50
2022-07-25T19:58:38.617Z,26.50
2022-07-25T20:01:05.736Z,26.60
2022-07-25T20:03:32.286Z,26.50
2022-07-25T20:05:58.794Z,26.50
2022-07-25T20:08:25.331Z,26.30
2022-07-25T20:10:51.849Z,26.30
2022-07-25T20:13:18.367Z,26.40
2022-07-25T20:15:44.895Z,26.40
2022-07-25T20:18:14.868Z,26.50
2022-07-25T20:20:45.391Z,26.50
2022-07-25T20:23:11.928Z,26.50
2022-07-25T20:25:38.443Z,26.50
2022-07-25T20:28:04.986Z,26.40
2022-07-25T20:30:34.825Z,26.30
2022-07-25T20:33:01.716Z,26.40
2022-07-25T20:35:35.615Z,26.50
2022-07-25T20:38:02.293Z,26.50
2022-07-25T20:40:28.838Z,26.40
2022-07-25T20:42:55.371Z,26.40
2022-07-25T20:45:21.900Z,26.40
2022-07-25T20:47:48.418Z,26.50
2022-07-25T20:50:14.953Z,26.30
2022-07-25T20:52:41.472Z,26.50
2022-07-25T20:55:07.997Z,26.50
2022-07-25T20:57:34.548Z,26.30
2022-07-25T21:00:01.076Z,26.30
2022-07-25T21:02:27.679Z,26.40
2022-07-25T21:04:54.252Z,26.40
2022-07-25T21:07:20.801Z,26.40
2022-07-25T21:09:47.319Z,26.40
2022-07-25T21:12:13.848Z,26.50
2022-07-25T21:14:40.381Z,26.40
2022-07-25T21:17:08.044Z,26.40
2022-07-25T21:19:34.647Z,26.40
2022-07-25T21:22:01.180Z,26.40
2022-07-25T21:24:27.716Z,26.40
2022-07-25T21:26:54.251Z,26.40
2022-07-25T21:29:20.788Z,26.30
2022-07-25T21:31:47.350Z,26.40
2022-07-25T21:34:13.948Z,26.10
2022-07-25T21:36:40.479Z,26.00
2022-07-25T21:39:07.191Z,26.20
2022-07-25T21:41:34.001Z,26.10
2022-07-25T21:44:00.543Z,25.90
2022-07-25T21:46:27.103Z,25.90
2022-07-25T21:48:54.335Z,26.00
2022-07-25T21:51:23.240Z,26.10
2022-07-25T21:53:50.939Z,25.90
2022-07-25T21:56:17.448Z,25.70
2022-07-25T21:58:44.002Z,25.90
2022-07-25T22:01:10.609Z,25.80
2022-07-25T22:03:37.235Z,25.80
2022-07-25T22:06:03.830Z,26.00
2022-07-25T22:08:30.353Z,25.70
2022-07-25T22:10:56.872Z,25.70
2022-07-25T22:13:25.050Z,25.60
2022-07-25T22:15:51.586Z,25.60
2022-07-25T22:18:18.121Z,25.80
2022-07-25T22:20:45.057Z,25.90
2022-07-25T22:23:11.589Z,25.80
2022-07-25T22:25:40.196Z,25.90
2022-07-25T22:28:06.702Z,25.50
2022-07-25T22:30:40.644Z,25.50
2022-07-25T22:33:07.169Z,25.60
2022-07-25T22:35:33.693Z,25.80
2022-07-25T22:38:00.229Z,26.00
2022-07-25T22:40:26.768Z,25.90
2022-07-25T22:42:53.294Z,25.90
2022-07-25T22:45:19.821Z,25.70
2022-07-25T22:47:46.346Z,25.60
2022-07-25T22:50:12.879Z,26.00
2022-07-25T22:52:39.395Z,26.00
2022-07-25T22:55:05.936Z,25.70
2022-07-25T22:57:37.237Z,25.90
2022-07-25T23:00:04.234Z,25.90
2022-07-25T23:02:30.794Z,25.90
2022-07-25T23:04:57.381Z,26.00
2022-07-25T23:07:23.903Z,26.00
2022-07-25T23:09:50.418Z,26.10
2022-07-25T23:12:16.932Z,25.70
2022-07-25T23:14:43.462Z,25.90
2022-07-25T23:17:09.986Z,26.00
2022-07-25T23:19:36.540Z,25.70
2022-07-25T23:22:03.081Z,25.90
2022-07-25T23:24:32.105Z,26.10
2022-07-25T23:27:00.996Z,26.10
2022-07-25T23:29:27.532Z,26.10
2022-07-25T23:31:54.113Z,26.00
2022-07-25T23:34:20.665Z,26.00
2022-07-25T23:36:47.205Z,26.10
2022-07-25T23:39:14.944Z,26.10
2022-07-25T23:41:42.056Z,26.10
2022-07-25T23:44:08.575Z,26.10
2022-07-25T23:46:37.566Z,26.10
2022-07-25T23:49:04.403Z,26.20
2022-07-25T23:51:31.166Z,26.20
2022-07-25T23:53:57.694Z,26.20
2022-07-25T23:56:24.224Z,26.10
2022-07-25T23:58:50.755Z,26.20
